IBE07RZ LEMD-EGLL
Flight info
| Callsign | IBE07RZ |
|---|---|
| Flight time | N/A |
| Altitude | 34000 |
| Route | SIE N858 DGO N867 NENEM DCT DIDIG UP87 ROXOG |
| Aircraft | A359/H-SDE2E3GHIJ1J3J4J5LM1ORWXY/LB1D1 |
Departure
| Time | 2026-05-01 14:15 |
|---|---|
| Airport | Adolfo Suárez Madrid–Barajas Airport (LEMD) |
Arrival
| Time | N/A |
|---|---|
| Airport | London Heathrow Airport (EGLL) |
| Time | Latitude | Longitude | Altitude | Speed | Heading |
|---|---|---|---|---|---|
| 2026-05-01 14:06 | 40.49318 | -3.57002 | 1982 ft | 0 kts | 180° |
| 2026-05-01 14:08 | 40.49314 | -3.57002 | 1982 ft | 1 kts | 182° |
| 2026-05-01 14:09 | 40.49308 | -3.57007 | 2004 ft | 1 kts | 206° |
| 2026-05-01 14:09 | 40.49302 | -3.57016 | 1978 ft | 2 kts | 226° |
| 2026-05-01 14:09 | 40.49294 | -3.57047 | 1986 ft | 5 kts | 256° |
| 2026-05-01 14:09 | 40.49285 | -3.57093 | 1987 ft | 5 kts | 241° |
| 2026-05-01 14:10 | 40.49252 | -3.57113 | 1988 ft | 6 kts | 187° |
| 2026-05-01 14:10 | 40.49201 | -3.57117 | 1990 ft | 9 kts | 181° |
| 2026-05-01 14:10 | 40.49115 | -3.57114 | 1987 ft | 14 kts | 179° |
| 2026-05-01 14:10 | 40.49015 | -3.57113 | 1987 ft | 13 kts | 180° |
| 2026-05-01 14:11 | 40.48942 | -3.57113 | 1987 ft | 0 kts | 180° |
| 2026-05-01 14:11 | 40.48940 | -3.57113 | 1987 ft | 2 kts | 180° |
| 2026-05-01 14:11 | 40.48890 | -3.57113 | 1990 ft | 12 kts | 180° |
| 2026-05-01 14:12 | 40.48793 | -3.57114 | 1991 ft | 14 kts | 191° |
| 2026-05-01 14:12 | 40.48761 | -3.57200 | 1990 ft | 11 kts | 251° |
| 2026-05-01 14:12 | 40.48722 | -3.57232 | 1993 ft | 5 kts | 185° |
| 2026-05-01 14:12 | 40.48705 | -3.57241 | 1995 ft | 1 kts | 212° |
| 2026-05-01 14:13 | 40.48683 | -3.57272 | 1996 ft | 9 kts | 229° |
| 2026-05-01 14:13 | 40.48636 | -3.57355 | 2000 ft | 11 kts | 234° |
| 2026-05-01 14:13 | 40.48588 | -3.57433 | 2001 ft | 12 kts | 232° |
| 2026-05-01 14:13 | 40.48532 | -3.57522 | 2001 ft | 13 kts | 220° |
| 2026-05-01 14:14 | 40.48468 | -3.57565 | 2001 ft | 8 kts | 194° |
| 2026-05-01 14:14 | 40.48423 | -3.57542 | 2002 ft | 0 kts | 138° |
| 2026-05-01 14:14 | 40.48304 | -3.57413 | 2003 ft | 56 kts | 142° |
| 2026-05-01 14:15 | 40.47820 | -3.56920 | 2001 ft | 120 kts | 142° |
| 2026-05-01 14:15 | 40.47010 | -3.56095 | 1985 ft | 174 kts | 143° |
| 2026-05-01 14:15 | 40.46021 | -3.55086 | 2576 ft | 172 kts | 144° |
| 2026-05-01 14:15 | 40.45111 | -3.54167 | 3513 ft | 162 kts | 146° |
| 2026-05-01 14:16 | 40.44177 | -3.53255 | 4096 ft | 171 kts | 147° |
| 2026-05-01 14:16 | 40.43224 | -3.52320 | 4773 ft | 171 kts | 146° |
| 2026-05-01 14:16 | 40.42278 | -3.51387 | 5350 ft | 179 kts | 146° |
| 2026-05-01 14:16 | 40.41174 | -3.50336 | 5612 ft | 209 kts | 147° |
| 2026-05-01 14:17 | 40.39903 | -3.49167 | 5957 ft | 235 kts | 147° |
| 2026-05-01 14:17 | 40.38567 | -3.47893 | 6799 ft | 236 kts | 144° |
| 2026-05-01 14:17 | 40.37311 | -3.46555 | 7697 ft | 237 kts | 142° |
| 2026-05-01 14:17 | 40.36054 | -3.45125 | 8527 ft | 242 kts | 142° |
| 2026-05-01 14:18 | 40.34744 | -3.43711 | 9345 ft | 247 kts | 144° |
| 2026-05-01 14:18 | 40.33367 | -3.42325 | 10185 ft | 252 kts | 146° |
| 2026-05-01 14:18 | 40.31933 | -3.40978 | 11002 ft | 255 kts | 147° |
| 2026-05-01 14:18 | 40.30949 | -3.40068 | 11568 ft | 258 kts | 147° |
| 2026-05-01 14:19 | 40.28904 | -3.38400 | 12412 ft | 272 kts | 162° |
| 2026-05-01 14:19 | 40.26983 | -3.38187 | 12749 ft | 289 kts | 193° |
| 2026-05-01 14:19 | 40.25034 | -3.39098 | 13126 ft | 308 kts | 205° |
| 2026-05-01 14:19 | 40.23041 | -3.40362 | 13506 ft | 328 kts | 210° |
| 2026-05-01 14:20 | 40.21268 | -3.42301 | 14024 ft | 339 kts | 233° |
| 2026-05-01 14:20 | 40.20206 | -3.48202 | 15474 ft | 350 kts | 278° |
| 2026-05-01 14:20 | 40.20709 | -3.51362 | 16112 ft | 358 kts | 282° |
| 2026-05-01 14:21 | 40.21276 | -3.54560 | 16815 ft | 363 kts | 281° |
| 2026-05-01 14:21 | 40.21947 | -3.57763 | 17571 ft | 368 kts | 289° |
| 2026-05-01 14:21 | 40.23199 | -3.60708 | 18340 ft | 374 kts | 307° |
| 2026-05-01 14:22 | 40.27532 | -3.64582 | 19666 ft | 389 kts | 334° |
| 2026-05-01 14:22 | 40.30054 | -3.65953 | 20230 ft | 397 kts | 335° |
| 2026-05-01 14:22 | 40.32657 | -3.67362 | 20536 ft | 412 kts | 335° |
| 2026-05-01 14:22 | 40.35345 | -3.68837 | 20885 ft | 424 kts | 335° |
| 2026-05-01 14:23 | 40.38089 | -3.70352 | 21407 ft | 431 kts | 335° |
| 2026-05-01 14:23 | 40.40886 | -3.71831 | 22001 ft | 437 kts | 339° |
| 2026-05-01 14:23 | 40.43893 | -3.72618 | 22608 ft | 446 kts | 353° |
| 2026-05-01 14:23 | 40.46973 | -3.72822 | 23218 ft | 451 kts | 356° |
| 2026-05-01 14:24 | 40.50136 | -3.72945 | 23824 ft | 456 kts | 356° |
| 2026-05-01 14:24 | 40.53330 | -3.73075 | 24349 ft | 460 kts | 355° |
| 2026-05-01 14:24 | 40.56545 | -3.73215 | 24898 ft | 463 kts | 355° |
| 2026-05-01 14:24 | 40.59782 | -3.73362 | 25476 ft | 467 kts | 355° |
| 2026-05-01 14:25 | 40.63042 | -3.73478 | 26006 ft | 471 kts | 358° |
| 2026-05-01 14:25 | 40.66331 | -3.73123 | 26534 ft | 478 kts | 6° |
| 2026-05-01 14:25 | 40.69618 | -3.72339 | 27058 ft | 482 kts | 8° |
| 2026-05-01 14:25 | 40.72910 | -3.71479 | 27577 ft | 485 kts | 9° |
| 2026-05-01 14:26 | 40.76239 | -3.70606 | 28076 ft | 489 kts | 8° |
| 2026-05-01 14:26 | 40.82920 | -3.68866 | 29028 ft | 496 kts | 8° |
| 2026-05-01 14:26 | 40.86319 | -3.67984 | 29526 ft | 498 kts | 8° |
| 2026-05-01 14:27 | 40.89709 | -3.67103 | 30254 ft | 495 kts | 8° |
| 2026-05-01 14:27 | 40.93080 | -3.66225 | 30819 ft | 494 kts | 8° |
| 2026-05-01 14:27 | 40.96453 | -3.65348 | 31318 ft | 494 kts | 8° |
| 2026-05-01 14:28 | 41.03263 | -3.63580 | 31848 ft | 503 kts | 8° |
| 2026-05-01 14:28 | 41.06718 | -3.62680 | 32093 ft | 507 kts | 8° |
| 2026-05-01 14:28 | 41.10197 | -3.61772 | 32355 ft | 510 kts | 8° |
| 2026-05-01 14:28 | 41.13681 | -3.60826 | 32605 ft | 511 kts | 11° |
| 2026-05-01 14:29 | 41.17041 | -3.59452 | 32866 ft | 513 kts | 18° |
| 2026-05-01 14:29 | 41.20377 | -3.57768 | 33128 ft | 513 kts | 20° |
| 2026-05-01 14:30 | 41.30255 | -3.52321 | 33926 ft | 511 kts | 21° |
| 2026-05-01 14:30 | 41.33540 | -3.50488 | 34110 ft | 511 kts | 21° |
| 2026-05-01 14:31 | 41.43382 | -3.45054 | 34124 ft | 510 kts | 21° |
| 2026-05-01 14:31 | 41.49959 | -3.41441 | 34113 ft | 510 kts | 21° |
| 2026-05-01 14:32 | 41.56532 | -3.37829 | 34107 ft | 511 kts | 21° |
| 2026-05-01 14:32 | 41.63061 | -3.34222 | 34105 ft | 511 kts | 21° |
| 2026-05-01 14:33 | 41.69638 | -3.30577 | 34108 ft | 510 kts | 21° |
| 2026-05-01 14:33 | 41.76198 | -3.26936 | 34104 ft | 510 kts | 21° |
| 2026-05-01 14:34 | 41.82761 | -3.23286 | 34101 ft | 510 kts | 21° |
| 2026-05-01 14:34 | 41.89316 | -3.19634 | 34108 ft | 510 kts | 21° |
| 2026-05-01 14:35 | 41.95827 | -3.15998 | 34116 ft | 509 kts | 21° |
| 2026-05-01 14:35 | 41.99096 | -3.14168 | 34286 ft | 509 kts | 21° |
| 2026-05-01 14:35 | 42.02363 | -3.12338 | 34657 ft | 508 kts | 21° |
| 2026-05-01 14:35 | 42.05625 | -3.10508 | 35151 ft | 504 kts | 21° |
| 2026-05-01 14:36 | 42.08849 | -3.08697 | 35634 ft | 501 kts | 21° |
| 2026-05-01 14:36 | 42.12070 | -3.06887 | 36032 ft | 500 kts | 21° |
| 2026-05-01 14:36 | 42.15280 | -3.05082 | 36384 ft | 499 kts | 21° |
| 2026-05-01 14:36 | 42.18483 | -3.03277 | 36748 ft | 498 kts | 21° |
| 2026-05-01 14:37 | 42.21679 | -3.01475 | 37097 ft | 498 kts | 21° |
| 2026-05-01 14:37 | 42.24873 | -2.99673 | 37450 ft | 497 kts | 21° |
| 2026-05-01 14:37 | 42.28064 | -2.97870 | 37752 ft | 497 kts | 21° |
| 2026-05-01 14:37 | 42.31249 | -2.96068 | 38033 ft | 497 kts | 20° |
| 2026-05-01 14:38 | 42.34441 | -2.94261 | 38109 ft | 497 kts | 21° |
| 2026-05-01 14:38 | 42.40785 | -2.90674 | 38102 ft | 496 kts | 20° |
| 2026-05-01 14:39 | 42.47422 | -2.88477 | 38109 ft | 489 kts | 2° |
| 2026-05-01 14:39 | 42.54208 | -2.88427 | 38110 ft | 487 kts | 355° |
| 2026-05-01 14:40 | 42.60985 | -2.88794 | 38110 ft | 487 kts | 355° |
| 2026-05-01 14:40 | 42.67755 | -2.89209 | 38118 ft | 487 kts | 355° |
| 2026-05-01 14:41 | 42.74538 | -2.89590 | 38118 ft | 487 kts | 355° |
| 2026-05-01 14:41 | 42.81318 | -2.89948 | 38123 ft | 488 kts | 355° |
| 2026-05-01 14:42 | 42.88104 | -2.90299 | 38127 ft | 487 kts | 355° |
| 2026-05-01 14:42 | 42.94887 | -2.90654 | 38127 ft | 488 kts | 355° |
| 2026-05-01 14:43 | 43.00478 | -2.90948 | 38120 ft | 488 kts | 355° |
| 2026-05-01 14:43 | 43.07229 | -2.91306 | 38114 ft | 488 kts | 355° |
| 2026-05-01 14:44 | 43.14027 | -2.91666 | 38081 ft | 489 kts | 355° |
| 2026-05-01 14:44 | 43.24225 | -2.92206 | 38076 ft | 489 kts | 355° |
| 2026-05-01 14:45 | 43.34268 | -2.93749 | 38078 ft | 485 kts | 346° |
| 2026-05-01 14:46 | 43.40884 | -2.95736 | 38083 ft | 485 kts | 345° |
| 2026-05-01 14:46 | 43.50770 | -2.98862 | 38087 ft | 486 kts | 345° |
| 2026-05-01 14:47 | 43.57361 | -3.00942 | 38097 ft | 486 kts | 345° |
| 2026-05-01 14:48 | 43.67221 | -3.04041 | 38115 ft | 486 kts | 345° |
| 2026-05-01 14:48 | 43.77156 | -3.06991 | 38118 ft | 487 kts | 346° |
| 2026-05-01 14:49 | 43.90427 | -3.10758 | 38128 ft | 487 kts | 346° |
| 2026-05-01 14:50 | 44.03793 | -3.13994 | 38133 ft | 491 kts | 357° |
| 2026-05-01 14:51 | 44.13849 | -3.11370 | 38138 ft | 496 kts | 15° |
| 2026-05-01 14:52 | 44.23733 | -3.07011 | 38143 ft | 497 kts | 16° |
| 2026-05-01 14:53 | 44.33608 | -3.02621 | 38148 ft | 497 kts | 16° |
| 2026-05-01 14:53 | 44.40199 | -2.99724 | 38150 ft | 497 kts | 15° |
| 2026-05-01 14:54 | 44.46790 | -2.96828 | 38152 ft | 497 kts | 15° |
| 2026-05-01 14:54 | 44.53388 | -2.93922 | 38158 ft | 497 kts | 15° |
| 2026-05-01 14:55 | 44.59935 | -2.91029 | 38162 ft | 496 kts | 16° |
| 2026-05-01 14:55 | 44.66538 | -2.88104 | 38161 ft | 496 kts | 16° |
| 2026-05-01 14:56 | 44.73126 | -2.85178 | 38161 ft | 496 kts | 16° |
| 2026-05-01 14:56 | 44.78602 | -2.82741 | 38164 ft | 496 kts | 16° |
| 2026-05-01 14:57 | 44.85195 | -2.79801 | 38169 ft | 496 kts | 16° |
| 2026-05-01 14:57 | 44.95038 | -2.75398 | 38174 ft | 496 kts | 16° |
| 2026-05-01 14:58 | 45.01615 | -2.72446 | 38175 ft | 496 kts | 16° |
| 2026-05-01 14:58 | 45.08185 | -2.69491 | 38179 ft | 495 kts | 16° |
| 2026-05-01 14:59 | 45.14711 | -2.66549 | 38183 ft | 495 kts | 16° |
| 2026-05-01 14:59 | 45.21284 | -2.63579 | 38183 ft | 495 kts | 16° |
| 2026-05-01 15:00 | 45.31125 | -2.59117 | 38190 ft | 495 kts | 16° |
| 2026-05-01 15:01 | 45.37699 | -2.56128 | 38190 ft | 495 kts | 16° |
| 2026-05-01 15:01 | 45.44258 | -2.53138 | 38189 ft | 495 kts | 16° |
| 2026-05-01 15:02 | 45.50811 | -2.50144 | 38197 ft | 494 kts | 16° |
| 2026-05-01 15:02 | 45.57323 | -2.47162 | 38195 ft | 494 kts | 16° |
| 2026-05-01 15:03 | 45.63876 | -2.44153 | 38196 ft | 494 kts | 16° |
| 2026-05-01 15:03 | 45.70437 | -2.41133 | 38199 ft | 494 kts | 16° |
| 2026-05-01 15:04 | 45.76938 | -2.38133 | 38197 ft | 494 kts | 16° |
| 2026-05-01 15:04 | 45.83474 | -2.35109 | 38203 ft | 493 kts | 16° |
| 2026-05-01 15:05 | 45.90009 | -2.32079 | 38205 ft | 493 kts | 16° |
| 2026-05-01 15:05 | 45.96539 | -2.29044 | 38205 ft | 493 kts | 16° |
| 2026-05-01 15:06 | 46.03067 | -2.26008 | 38205 ft | 492 kts | 16° |
| 2026-05-01 15:06 | 46.09739 | -2.23902 | 38213 ft | 490 kts | 8° |
| 2026-05-01 15:07 | 46.16463 | -2.22216 | 38209 ft | 490 kts | 7° |
| 2026-05-01 15:07 | 46.23149 | -2.20607 | 38214 ft | 490 kts | 7° |
| 2026-05-01 15:08 | 46.29885 | -2.18976 | 38211 ft | 490 kts | 7° |
| 2026-05-01 15:08 | 46.36614 | -2.17330 | 38210 ft | 490 kts | 8° |
| 2026-05-01 15:09 | 46.43349 | -2.15673 | 38209 ft | 491 kts | 8° |
| 2026-05-01 15:09 | 46.50083 | -2.14011 | 38213 ft | 491 kts | 8° |
| 2026-05-01 15:10 | 46.56831 | -2.12342 | 38211 ft | 491 kts | 8° |
| 2026-05-01 15:10 | 46.66902 | -2.09844 | 38208 ft | 491 kts | 8° |
| 2026-05-01 15:11 | 46.77017 | -2.07325 | 38204 ft | 492 kts | 8° |
| 2026-05-01 15:12 | 46.83771 | -2.05638 | 38201 ft | 492 kts | 8° |
| 2026-05-01 15:12 | 46.93908 | -2.03098 | 38206 ft | 492 kts | 8° |
| 2026-05-01 15:14 | 47.10758 | -1.98892 | 38197 ft | 492 kts | 7° |
| 2026-05-01 15:14 | 47.20900 | -1.96381 | 38189 ft | 493 kts | 8° |
| 2026-05-01 15:15 | 47.34456 | -1.93255 | 38186 ft | 491 kts | 1° |
| 2026-05-01 15:16 | 47.48065 | -1.94214 | 38190 ft | 489 kts | 353° |
| 2026-05-01 15:18 | 47.65032 | -1.95056 | 38191 ft | 493 kts | 8° |
| 2026-05-01 15:19 | 47.78163 | -1.89016 | 38187 ft | 496 kts | 18° |
| 2026-05-01 15:19 | 47.87939 | -1.83934 | 38187 ft | 496 kts | 18° |
| 2026-05-01 15:20 | 47.97727 | -1.78900 | 38183 ft | 496 kts | 18° |
| 2026-05-01 15:21 | 48.04271 | -1.75613 | 38180 ft | 495 kts | 14° |
| 2026-05-01 15:21 | 48.11058 | -1.74265 | 38186 ft | 491 kts | 360° |
| 2026-05-01 15:22 | 48.21329 | -1.74255 | 38187 ft | 492 kts | 357° |
| 2026-05-01 15:22 | 48.28134 | -1.74393 | 38187 ft | 492 kts | 357° |
| 2026-05-01 15:23 | 48.34997 | -1.74506 | 38193 ft | 493 kts | 358° |
| 2026-05-01 15:23 | 48.41864 | -1.74595 | 38208 ft | 493 kts | 358° |
| 2026-05-01 15:24 | 48.48734 | -1.74678 | 38205 ft | 494 kts | 358° |
| 2026-05-01 15:24 | 48.55611 | -1.74759 | 38212 ft | 494 kts | 358° |
| 2026-05-01 15:25 | 48.62460 | -1.74841 | 38214 ft | 494 kts | 358° |
| 2026-05-01 15:25 | 48.69338 | -1.74925 | 38213 ft | 495 kts | 358° |
| 2026-05-01 15:26 | 48.76224 | -1.75010 | 38214 ft | 495 kts | 358° |
| 2026-05-01 15:26 | 48.83109 | -1.75095 | 38214 ft | 495 kts | 358° |
| 2026-05-01 15:27 | 48.90005 | -1.75180 | 38216 ft | 495 kts | 358° |
| 2026-05-01 15:28 | 49.00366 | -1.74967 | 38216 ft | 496 kts | 0° |
| 2026-05-01 15:28 | 49.07218 | -1.74624 | 38212 ft | 496 kts | 0° |
| 2026-05-01 15:29 | 49.17574 | -1.74179 | 38210 ft | 496 kts | 0° |
| 2026-05-01 15:30 | 49.31387 | -1.73652 | 38214 ft | 496 kts | 0° |
| 2026-05-01 15:31 | 49.52122 | -1.72852 | 38212 ft | 497 kts | 0° |
| 2026-05-01 15:32 | 49.65916 | -1.72171 | 38210 ft | 498 kts | 2° |
| 2026-05-01 15:33 | 49.76274 | -1.71201 | 37645 ft | 495 kts | 2° |
| 2026-05-01 15:34 | 49.86588 | -1.70288 | 35649 ft | 495 kts | 2° |